sensor_id;sensor_type;location;lat;lon;timestamp;temperature;humidity
11214;DHT22;5664;48.606;13.456;2023-03-01T00:00:54;18.80;93.60
11214;DHT22;5664;48.606;13.456;2023-03-01T00:03:25;18.70;93.60
11214;DHT22;5664;48.606;13.456;2023-03-01T00:05:51;18.70;93.60
11214;DHT22;5664;48.606;13.456;2023-03-01T00:08:16;18.70;93.70
11214;DHT22;5664;48.606;13.456;2023-03-01T00:10:41;18.70;93.70
11214;DHT22;5664;48.606;13.456;2023-03-01T00:13:07;18.70;93.70
11214;DHT22;5664;48.606;13.456;2023-03-01T00:15:32;18.60;93.70
11214;DHT22;5664;48.606;13.456;2023-03-01T00:18:00;18.60;93.70
11214;DHT22;5664;48.606;13.456;2023-03-01T00:20:25;18.60;93.70
11214;DHT22;5664;48.606;13.456;2023-03-01T00:22:50;18.80;93.70
11214;DHT22;5664;48.606;13.456;2023-03-01T00:25:16;18.60;93.80
11214;DHT22;5664;48.606;13.456;2023-03-01T00:27:41;18.70;93.80
11214;DHT22;5664;48.606;13.456;2023-03-01T00:30:07;18.60;93.80
11214;DHT22;5664;48.606;13.456;2023-03-01T00:32:35;18.60;93.70
11214;DHT22;5664;48.606;13.456;2023-03-01T00:35:00;18.50;93.80
11214;DHT22;5664;48.606;13.456;2023-03-01T00:37:26;18.70;93.90
11214;DHT22;5664;48.606;13.456;2023-03-01T00:39:51;18.50;93.80
11214;DHT22;5664;48.606;13.456;2023-03-01T00:42:17;18.50;93.90
11214;DHT22;5664;48.606;13.456;2023-03-01T00:44:42;18.50;93.80
11214;DHT22;5664;48.606;13.456;2023-03-01T00:47:08;18.50;93.80
11214;DHT22;5664;48.606;13.456;2023-03-01T00:49:34;18.50;93.70
11214;DHT22;5664;48.606;13.456;2023-03-01T00:51:59;18.50;93.70
11214;DHT22;5664;48.606;13.456;2023-03-01T00:54:25;18.50;93.70
11214;DHT22;5664;48.606;13.456;2023-03-01T00:56:50;18.60;93.80
11214;DHT22;5664;48.606;13.456;2023-03-01T00:59:16;18.60;93.80
11214;DHT22;5664;48.606;13.456;2023-03-01T01:01:41;18.50;94.10
11214;DHT22;5664;48.606;13.456;2023-03-01T01:04:08;18.50;93.80
11214;DHT22;5664;48.606;13.456;2023-03-01T01:06:40;18.60;93.80
11214;DHT22;5664;48.606;13.456;2023-03-01T01:09:10;18.50;93.70
11214;DHT22;5664;48.606;13.456;2023-03-01T01:11:42;18.50;93.80
11214;DHT22;5664;48.606;13.456;2023-03-01T01:14:08;18.50;93.70
11214;DHT22;5664;48.606;13.456;2023-03-01T01:16:33;18.70;93.80
11214;DHT22;5664;48.606;13.456;2023-03-01T01:18:59;18.70;93.90
11214;DHT22;5664;48.606;13.456;2023-03-01T01:21:25;18.50;93.80
11214;DHT22;5664;48.606;13.456;2023-03-01T01:23:50;18.60;93.70
11214;DHT22;5664;48.606;13.456;2023-03-01T01:26:18;18.50;93.80
11214;DHT22;5664;48.606;13.456;2023-03-01T01:28:44;18.50;93.70
11214;DHT22;5664;48.606;13.456;2023-03-01T01:31:09;18.50;93.80
11214;DHT22;5664;48.606;13.456;2023-03-01T01:33:35;18.60;93.70
11214;DHT22;5664;48.606;13.456;2023-03-01T01:36:03;18.50;93.70
11214;DHT22;5664;48.606;13.456;2023-03-01T01:38:28;18.40;93.70
11214;DHT22;5664;48.606;13.456;2023-03-01T01:40:54;18.50;93.80
11214;DHT22;5664;48.606;13.456;2023-03-01T01:43:23;18.50;93.70
11214;DHT22;5664;48.606;13.456;2023-03-01T01:45:49;18.40;93.70
11214;DHT22;5664;48.606;13.456;2023-03-01T01:48:19;18.50;93.70
11214;DHT22;5664;48.606;13.456;2023-03-01T01:50:45;18.40;93.70
11214;DHT22;5664;48.606;13.456;2023-03-01T01:53:14;18.40;93.70
11214;DHT22;5664;48.606;13.456;2023-03-01T01:55:42;18.40;93.70
11214;DHT22;5664;48.606;13.456;2023-03-01T01:58:09;18.40;93.70
11214;DHT22;5664;48.606;13.456;2023-03-01T02:00:36;18.50;93.70
11214;DHT22;5664;48.606;13.456;2023-03-01T02:03:07;18.60;93.70
11214;DHT22;5664;48.606;13.456;2023-03-01T02:05:38;18.40;93.70
11214;DHT22;5664;48.606;13.456;2023-03-01T02:08:06;18.40;93.70
11214;DHT22;5664;48.606;13.456;2023-03-01T02:10:32;18.40;93.70
11214;DHT22;5664;48.606;13.456;2023-03-01T02:12:58;18.40;93.80
11214;DHT22;5664;48.606;13.456;2023-03-01T02:15:25;18.60;93.70
11214;DHT22;5664;48.606;13.456;2023-03-01T02:17:52;18.40;93.70
11214;DHT22;5664;48.606;13.456;2023-03-01T02:20:21;18.40;93.60
11214;DHT22;5664;48.606;13.456;2023-03-01T02:22:48;18.40;93.60
11214;DHT22;5664;48.606;13.456;2023-03-01T02:27:48;18.40;93.60
11214;DHT22;5664;48.606;13.456;2023-03-01T02:30:14;18.60;93.70
11214;DHT22;5664;48.606;13.456;2023-03-01T02:32:40;18.40;93.70
11214;DHT22;5664;48.606;13.456;2023-03-01T02:35:10;18.50;93.60
11214;DHT22;5664;48.606;13.456;2023-03-01T02:37:37;18.40;93.60
11214;DHT22;5664;48.606;13.456;2023-03-01T02:40:04;18.40;93.70
11214;DHT22;5664;48.606;13.456;2023-03-01T02:42:35;18.40;93.60
11214;DHT22;5664;48.606;13.456;2023-03-01T02:45:02;18.50;93.70
11214;DHT22;5664;48.606;13.456;2023-03-01T02:47:27;18.40;93.60
11214;DHT22;5664;48.606;13.456;2023-03-01T02:49:53;18.40;93.70
11214;DHT22;5664;48.606;13.456;2023-03-01T02:54:48;18.40;93.60
11214;DHT22;5664;48.606;13.456;2023-03-01T02:57:16;18.40;93.50
11214;DHT22;5664;48.606;13.456;2023-03-01T02:59:41;18.40;93.60
11214;DHT22;5664;48.606;13.456;2023-03-01T03:02:08;18.40;93.60
11214;DHT22;5664;48.606;13.456;2023-03-01T03:04:45;18.60;93.60
11214;DHT22;5664;48.606;13.456;2023-03-01T03:07:10;18.40;93.70
11214;DHT22;5664;48.606;13.456;2023-03-01T03:09:36;18.50;93.70
11214;DHT22;5664;48.606;13.456;2023-03-01T03:12:01;18.40;93.70
11214;DHT22;5664;48.606;13.456;2023-03-01T03:14:27;18.40;93.60
11214;DHT22;5664;48.606;13.456;2023-03-01T03:16:52;18.50;93.70
11214;DHT22;5664;48.606;13.456;2023-03-01T03:19:18;18.40;93.70
11214;DHT22;5664;48.606;13.456;2023-03-01T03:21:44;18.50;93.60
11214;DHT22;5664;48.606;13.456;2023-03-01T03:24:10;18.40;93.60
11214;DHT22;5664;48.606;13.456;2023-03-01T03:26:35;18.70;93.80
11214;DHT22;5664;48.606;13.456;2023-03-01T03:29:00;18.40;93.60
11214;DHT22;5664;48.606;13.456;2023-03-01T03:31:26;18.30;93.50
11214;DHT22;5664;48.606;13.456;2023-03-01T03:33:51;18.40;93.80
11214;DHT22;5664;48.606;13.456;2023-03-01T03:36:18;18.30;93.50
11214;DHT22;5664;48.606;13.456;2023-03-01T03:38:44;18.50;93.50
11214;DHT22;5664;48.606;13.456;2023-03-01T03:41:11;18.50;93.50
11214;DHT22;5664;48.606;13.456;2023-03-01T03:43:37;18.50;93.50
11214;DHT22;5664;48.606;13.456;2023-03-01T03:46:03;18.30;93.40
11214;DHT22;5664;48.606;13.456;2023-03-01T03:48:34;18.30;93.50
11214;DHT22;5664;48.606;13.456;2023-03-01T03:51:00;18.30;93.40
11214;DHT22;5664;48.606;13.456;2023-03-01T03:53:26;18.40;93.50
11214;DHT22;5664;48.606;13.456;2023-03-01T03:55:52;18.40;93.50
11214;DHT22;5664;48.606;13.456;2023-03-01T03:58:18;18.30;93.40
11214;DHT22;5664;48.606;13.456;2023-03-01T04:00:45;18.40;93.60
11214;DHT22;5664;48.606;13.456;2023-03-01T04:03:12;18.30;93.40
11214;DHT22;5664;48.606;13.456;2023-03-01T04:05:38;18.30;93.40
11214;DHT22;5664;48.606;13.456;2023-03-01T04:08:04;18.40;93.30
11214;DHT22;5664;48.606;13.456;2023-03-01T04:10:36;18.30;94.30
11214;DHT22;5664;48.606;13.456;2023-03-01T04:13:02;18.40;93.30
11214;DHT22;5664;48.606;13.456;2023-03-01T04:15:28;18.40;93.30
11214;DHT22;5664;48.606;13.456;2023-03-01T04:17:54;18.30;93.60
11214;DHT22;5664;48.606;13.456;2023-03-01T04:20:21;18.40;93.30
11214;DHT22;5664;48.606;13.456;2023-03-01T04:23:00;18.50;93.30
11214;DHT22;5664;48.606;13.456;2023-03-01T04:25:39;18.30;93.20
11214;DHT22;5664;48.606;13.456;2023-03-01T04:28:05;18.40;93.30
11214;DHT22;5664;48.606;13.456;2023-03-01T04:30:30;18.30;93.30
11214;DHT22;5664;48.606;13.456;2023-03-01T04:33:09;18.30;93.20
11214;DHT22;5664;48.606;13.456;2023-03-01T04:35:35;18.30;93.20
11214;DHT22;5664;48.606;13.456;2023-03-01T04:38:02;18.30;93.20
11214;DHT22;5664;48.606;13.456;2023-03-01T04:40:27;18.40;93.20
11214;DHT22;5664;48.606;13.456;2023-03-01T04:42:53;18.50;93.20
11214;DHT22;5664;48.606;13.456;2023-03-01T04:45:18;18.30;93.30
11214;DHT22;5664;48.606;13.456;2023-03-01T04:47:45;18.40;93.20
11214;DHT22;5664;48.606;13.456;2023-03-01T04:50:12;18.50;93.30
11214;DHT22;5664;48.606;13.456;2023-03-01T04:52:37;18.30;93.20
11214;DHT22;5664;48.606;13.456;2023-03-01T04:55:03;18.30;93.20
11214;DHT22;5664;48.606;13.456;2023-03-01T04:59:55;18.30;92.90
11214;DHT22;5664;48.606;13.456;2023-03-01T05:02:20;18.30;93.20
11214;DHT22;5664;48.606;13.456;2023-03-01T05:04:46;18.40;93.20
11214;DHT22;5664;48.606;13.456;2023-03-01T05:07:11;18.40;93.20
11214;DHT22;5664;48.606;13.456;2023-03-01T05:09:38;18.30;93.20
11214;DHT22;5664;48.606;13.456;2023-03-01T05:12:04;18.30;93.20
11214;DHT22;5664;48.606;13.456;2023-03-01T05:14:29;18.30;93.20
11214;DHT22;5664;48.606;13.456;2023-03-01T05:16:55;18.30;93.10
11214;DHT22;5664;48.606;13.456;2023-03-01T05:19:20;18.30;93.10
11214;DHT22;5664;48.606;13.456;2023-03-01T05:21:48;18.30;93.10
11214;DHT22;5664;48.606;13.456;2023-03-01T05:24:33;18.40;93.20
11214;DHT22;5664;48.606;13.456;2023-03-01T05:26:59;18.30;93.10
11214;DHT22;5664;48.606;13.456;2023-03-01T05:29:25;18.30;93.10
11214;DHT22;5664;48.606;13.456;2023-03-01T05:31:51;18.50;93.20
11214;DHT22;5664;48.606;13.456;2023-03-01T05:34:17;18.50;93.20
11214;DHT22;5664;48.606;13.456;2023-03-01T05:36:42;18.30;93.10
11214;DHT22;5664;48.606;13.456;2023-03-01T05:39:08;18.30;93.00
11214;DHT22;5664;48.606;13.456;2023-03-01T05:41:33;18.50;93.10
11214;DHT22;5664;48.606;13.456;2023-03-01T05:43:59;18.50;93.10
11214;DHT22;5664;48.606;13.456;2023-03-01T05:46:24;18.40;93.00
11214;DHT22;5664;48.606;13.456;2023-03-01T05:48:50;18.40;93.00
11214;DHT22;5664;48.606;13.456;2023-03-01T05:51:15;18.50;93.00
11214;DHT22;5664;48.606;13.456;2023-03-01T05:53:40;18.60;93.00
11214;DHT22;5664;48.606;13.456;2023-03-01T05:56:06;18.50;92.90
11214;DHT22;5664;48.606;13.456;2023-03-01T05:58:32;18.40;92.80
11214;DHT22;5664;48.606;13.456;2023-03-01T06:00:57;18.60;92.90
11214;DHT22;5664;48.606;13.456;2023-03-01T06:03:23;18.60;92.80
11214;DHT22;5664;48.606;13.456;2023-03-01T06:05:48;18.60;92.80
11214;DHT22;5664;48.606;13.456;2023-03-01T06:08:14;18.50;92.80
11214;DHT22;5664;48.606;13.456;2023-03-01T06:10:39;18.50;92.80
11214;DHT22;5664;48.606;13.456;2023-03-01T06:13:06;18.60;92.80
11214;DHT22;5664;48.606;13.456;2023-03-01T06:15:31;18.50;92.70
11214;DHT22;5664;48.606;13.456;2023-03-01T06:17:57;18.60;92.60
11214;DHT22;5664;48.606;13.456;2023-03-01T06:20:23;18.70;92.80
11214;DHT22;5664;48.606;13.456;2023-03-01T06:22:48;18.60;92.60
11214;DHT22;5664;48.606;13.456;2023-03-01T06:25:17;18.70;92.70
11214;DHT22;5664;48.606;13.456;2023-03-01T06:27:43;18.70;92.50
11214;DHT22;5664;48.606;13.456;2023-03-01T06:30:09;18.80;92.50
11214;DHT22;5664;48.606;13.456;2023-03-01T06:32:36;18.70;92.40
11214;DHT22;5664;48.606;13.456;2023-03-01T06:35:02;18.80;92.40
11214;DHT22;5664;48.606;13.456;2023-03-01T06:37:28;18.80;92.30
11214;DHT22;5664;48.606;13.456;2023-03-01T06:39:53;18.90;92.30
11214;DHT22;5664;48.606;13.456;2023-03-01T06:42:19;18.90;92.20
11214;DHT22;5664;48.606;13.456;2023-03-01T06:44:44;18.90;92.10
11214;DHT22;5664;48.606;13.456;2023-03-01T06:47:11;18.90;92.10
11214;DHT22;5664;48.606;13.456;2023-03-01T06:49:36;18.90;92.00
11214;DHT22;5664;48.606;13.456;2023-03-01T06:52:01;19.00;91.90
11214;DHT22;5664;48.606;13.456;2023-03-01T06:54:27;18.90;92.00
11214;DHT22;5664;48.606;13.456;2023-03-01T06:56:52;19.00;91.90
11214;DHT22;5664;48.606;13.456;2023-03-01T06:59:18;19.10;91.90
11214;DHT22;5664;48.606;13.456;2023-03-01T07:01:44;19.10;91.90
11214;DHT22;5664;48.606;13.456;2023-03-01T07:04:10;19.20;91.80
11214;DHT22;5664;48.606;13.456;2023-03-01T07:06:35;19.10;91.70
11214;DHT22;5664;48.606;13.456;2023-03-01T07:09:01;19.20;91.70
11214;DHT22;5664;48.606;13.456;2023-03-01T07:11:26;19.20;91.60
11214;DHT22;5664;48.606;13.456;2023-03-01T07:13:52;19.10;91.20
11214;DHT22;5664;48.606;13.456;2023-03-01T07:16:17;19.20;91.60
11214;DHT22;5664;48.606;13.456;2023-03-01T07:18:43;19.20;91.50
11214;DHT22;5664;48.606;13.456;2023-03-01T07:21:09;19.20;91.50
11214;DHT22;5664;48.606;13.456;2023-03-01T07:23:36;19.20;91.50
11214;DHT22;5664;48.606;13.456;2023-03-01T07:26:01;19.20;91.50
11214;DHT22;5664;48.606;13.456;2023-03-01T07:28:27;19.20;91.50
11214;DHT22;5664;48.606;13.456;2023-03-01T07:30:52;19.20;91.50
11214;DHT22;5664;48.606;13.456;2023-03-01T07:33:18;19.20;91.50
11214;DHT22;5664;48.606;13.456;2023-03-01T07:35:43;19.20;91.40
11214;DHT22;5664;48.606;13.456;2023-03-01T07:38:09;19.20;91.60
11214;DHT22;5664;48.606;13.456;2023-03-01T07:40:34;19.10;91.50
11214;DHT22;5664;48.606;13.456;2023-03-01T07:43:00;19.10;91.60
11214;DHT22;5664;48.606;13.456;2023-03-01T07:45:26;19.10;91.60
11214;DHT22;5664;48.606;13.456;2023-03-01T07:47:52;19.10;91.60
11214;DHT22;5664;48.606;13.456;2023-03-01T07:50:18;19.10;91.70
11214;DHT22;5664;48.606;13.456;2023-03-01T07:52:47;19.10;91.70
11214;DHT22;5664;48.606;13.456;2023-03-01T07:55:13;19.00;91.70
11214;DHT22;5664;48.606;13.456;2023-03-01T07:57:39;19.00;91.80
11214;DHT22;5664;48.606;13.456;2023-03-01T08:00:05;19.00;91.80
11214;DHT22;5664;48.606;13.456;2023-03-01T08:02:31;18.90;91.80
11214;DHT22;5664;48.606;13.456;2023-03-01T08:04:56;18.90;92.00
11214;DHT22;5664;48.606;13.456;2023-03-01T08:07:21;18.90;92.00
11214;DHT22;5664;48.606;13.456;2023-03-01T08:09:47;18.90;92.10
11214;DHT22;5664;48.606;13.456;2023-03-01T08:12:12;18.90;92.10
11214;DHT22;5664;48.606;13.456;2023-03-01T08:14:38;18.80;92.00
11214;DHT22;5664;48.606;13.456;2023-03-01T08:17:03;18.90;92.10
11214;DHT22;5664;48.606;13.456;2023-03-01T08:19:29;18.80;93.00
11214;DHT22;5664;48.606;13.456;2023-03-01T08:21:55;18.80;92.00
11214;DHT22;5664;48.606;13.456;2023-03-01T08:24:23;18.80;91.90
11214;DHT22;5664;48.606;13.456;2023-03-01T08:26:49;18.80;91.90
11214;DHT22;5664;48.606;13.456;2023-03-01T08:29:14;18.70;91.90
11214;DHT22;5664;48.606;13.456;2023-03-01T08:31:40;18.70;91.90
11214;DHT22;5664;48.606;13.456;2023-03-01T08:34:10;18.70;92.00
11214;DHT22;5664;48.606;13.456;2023-03-01T08:36:37;18.80;91.90
11214;DHT22;5664;48.606;13.456;2023-03-01T08:39:03;18.70;91.80
11214;DHT22;5664;48.606;13.456;2023-03-01T08:41:29;18.80;91.90
11214;DHT22;5664;48.606;13.456;2023-03-01T08:43:54;18.70;92.00
11214;DHT22;5664;48.606;13.456;2023-03-01T08:46:33;18.70;92.30
11214;DHT22;5664;48.606;13.456;2023-03-01T08:48:59;18.70;91.80
11214;DHT22;5664;48.606;13.456;2023-03-01T08:51:25;18.70;91.90
11214;DHT22;5664;48.606;13.456;2023-03-01T08:53:51;18.70;91.90
11214;DHT22;5664;48.606;13.456;2023-03-01T08:56:17;18.60;91.90
11214;DHT22;5664;48.606;13.456;2023-03-01T08:58:47;18.70;91.90
11214;DHT22;5664;48.606;13.456;2023-03-01T09:01:13;18.60;92.00
11214;DHT22;5664;48.606;13.456;2023-03-01T09:03:39;18.70;92.10
11214;DHT22;5664;48.606;13.456;2023-03-01T09:06:05;18.60;92.10
11214;DHT22;5664;48.606;13.456;2023-03-01T09:08:37;18.60;92.50
11214;DHT22;5664;48.606;13.456;2023-03-01T09:11:03;18.60;92.10
11214;DHT22;5664;48.606;13.456;2023-03-01T09:13:28;18.60;92.20
11214;DHT22;5664;48.606;13.456;2023-03-01T09:15:56;18.70;92.10
11214;DHT22;5664;48.606;13.456;2023-03-01T09:18:22;18.60;91.10
11214;DHT22;5664;48.606;13.456;2023-03-01T09:20:47;18.50;91.60
11214;DHT22;5664;48.606;13.456;2023-03-01T09:23:13;18.50;92.00
11214;DHT22;5664;48.606;13.456;2023-03-01T09:25:38;18.70;92.10
11214;DHT22;5664;48.606;13.456;2023-03-01T09:28:04;18.50;92.20
11214;DHT22;5664;48.606;13.456;2023-03-01T09:30:29;18.50;92.10
11214;DHT22;5664;48.606;13.456;2023-03-01T09:32:56;18.50;92.20
11214;DHT22;5664;48.606;13.456;2023-03-01T09:35:21;18.50;92.30
11214;DHT22;5664;48.606;13.456;2023-03-01T09:37:47;18.60;92.50
11214;DHT22;5664;48.606;13.456;2023-03-01T09:40:16;18.50;92.30
11214;DHT22;5664;48.606;13.456;2023-03-01T09:43:06;18.50;92.30
11214;DHT22;5664;48.606;13.456;2023-03-01T09:45:35;18.60;92.50
11214;DHT22;5664;48.606;13.456;2023-03-01T09:48:03;18.40;92.40
11214;DHT22;5664;48.606;13.456;2023-03-01T09:50:32;18.40;92.50
11214;DHT22;5664;48.606;13.456;2023-03-01T09:55:30;18.30;92.50
11214;DHT22;5664;48.606;13.456;2023-03-01T09:57:59;18.30;92.50
11214;DHT22;5664;48.606;13.456;2023-03-01T10:00:37;18.40;92.70
11214;DHT22;5664;48.606;13.456;2023-03-01T10:05:41;18.40;92.80
11214;DHT22;5664;48.606;13.456;2023-03-01T10:10:36;18.40;92.80
11214;DHT22;5664;48.606;13.456;2023-03-01T10:15:55;18.20;92.70
11214;DHT22;5664;48.606;13.456;2023-03-01T10:18:24;18.30;92.70
11214;DHT22;5664;48.606;13.456;2023-03-01T10:21:01;18.20;92.80
11214;DHT22;5664;48.606;13.456;2023-03-01T10:23:27;18.20;92.80
11214;DHT22;5664;48.606;13.456;2023-03-01T10:31:02;18.10;92.90
11214;DHT22;5664;48.606;13.456;2023-03-01T10:33:35;18.00;92.80
11214;DHT22;5664;48.606;13.456;2023-03-01T10:36:02;18.00;92.90
11214;DHT22;5664;48.606;13.456;2023-03-01T10:38:29;18.00;93.00
11214;DHT22;5664;48.606;13.456;2023-03-01T10:40:56;18.20;93.00
11214;DHT22;5664;48.606;13.456;2023-03-01T10:43:25;18.00;93.00
11214;DHT22;5664;48.606;13.456;2023-03-01T10:45:52;18.10;93.00
11214;DHT22;5664;48.606;13.456;2023-03-01T10:48:21;18.10;93.00
11214;DHT22;5664;48.606;13.456;2023-03-01T10:50:49;18.00;93.00
11214;DHT22;5664;48.606;13.456;2023-03-01T10:53:22;18.10;93.00
11214;DHT22;5664;48.606;13.456;2023-03-01T10:55:56;17.90;92.90
11214;DHT22;5664;48.606;13.456;2023-03-01T10:58:22;17.90;93.00
11214;DHT22;5664;48.606;13.456;2023-03-01T11:00:52;18.00;93.10
11214;DHT22;5664;48.606;13.456;2023-03-01T11:03:21;17.90;93.10
11214;DHT22;5664;48.606;13.456;2023-03-01T11:05:51;17.90;93.20
11214;DHT22;5664;48.606;13.456;2023-03-01T11:08:28;17.90;93.20
11214;DHT22;5664;48.606;13.456;2023-03-01T11:11:03;17.90;93.20
11214;DHT22;5664;48.606;13.456;2023-03-01T11:13:29;18.00;93.20
11214;DHT22;5664;48.606;13.456;2023-03-01T11:16:01;18.00;93.30
11214;DHT22;5664;48.606;13.456;2023-03-01T11:18:27;17.80;93.20
11214;DHT22;5664;48.606;13.456;2023-03-01T11:20:54;17.80;93.30
11214;DHT22;5664;48.606;13.456;2023-03-01T11:23:20;17.80;93.30
11214;DHT22;5664;48.606;13.456;2023-03-01T11:26:05;18.00;93.40
11214;DHT22;5664;48.606;13.456;2023-03-01T11:28:33;17.80;93.30
11214;DHT22;5664;48.606;13.456;2023-03-01T11:31:08;17.80;93.50
11214;DHT22;5664;48.606;13.456;2023-03-01T11:33:37;17.80;93.30
11214;DHT22;5664;48.606;13.456;2023-03-01T11:38:32;17.70;93.30
11214;DHT22;5664;48.606;13.456;2023-03-01T11:44:01;17.70;93.40
11214;DHT22;5664;48.606;13.456;2023-03-01T11:51:59;17.70;93.50
11214;DHT22;5664;48.606;13.456;2023-03-01T11:57:03;17.70;93.50
11214;DHT22;5664;48.606;13.456;2023-03-01T11:59:36;17.60;93.40
11214;DHT22;5664;48.606;13.456;2023-03-01T12:02:56;17.70;93.50
11214;DHT22;5664;48.606;13.456;2023-03-01T12:07:26;17.70;93.60
11214;DHT22;5664;48.606;13.456;2023-03-01T12:10:15;17.60;93.60
11214;DHT22;5664;48.606;13.456;2023-03-01T12:13:17;17.60;93.60
11214;DHT22;5664;48.606;13.456;2023-03-01T12:18:35;17.30;93.90
11214;DHT22;5664;48.606;13.456;2023-03-01T12:21:12;17.60;93.50
11214;DHT22;5664;48.606;13.456;2023-03-01T12:26:24;17.60;93.60
11214;DHT22;5664;48.606;13.456;2023-03-01T12:28:55;17.60;93.80
11214;DHT22;5664;48.606;13.456;2023-03-01T12:31:32;17.70;93.70
11214;DHT22;5664;48.606;13.456;2023-03-01T12:34:08;17.60;93.60
11214;DHT22;5664;48.606;13.456;2023-03-01T12:39:19;17.50;93.70
11214;DHT22;5664;48.606;13.456;2023-03-01T12:41:58;17.50;93.70
11214;DHT22;5664;48.606;13.456;2023-03-01T12:49:43;17.50;93.50
11214;DHT22;5664;48.606;13.456;2023-03-01T12:54:35;17.50;93.60
11214;DHT22;5664;48.606;13.456;2023-03-01T12:59:48;17.50;93.60
11214;DHT22;5664;48.606;13.456;2023-03-01T13:05:08;17.50;93.60
11214;DHT22;5664;48.606;13.456;2023-03-01T13:07:41;17.50;93.60
11214;DHT22;5664;48.606;13.456;2023-03-01T13:17:46;17.50;93.70
11214;DHT22;5664;48.606;13.456;2023-03-01T13:20:13;17.50;93.70
11214;DHT22;5664;48.606;13.456;2023-03-01T13:22:39;17.40;93.70
11214;DHT22;5664;48.606;13.456;2023-03-01T13:25:12;17.50;93.70
11214;DHT22;5664;48.606;13.456;2023-03-01T13:27:38;17.40;93.60
11214;DHT22;5664;48.606;13.456;2023-03-01T13:30:04;17.40;93.70
11214;DHT22;5664;48.606;13.456;2023-03-01T13:32:36;17.40;93.70
11214;DHT22;5664;48.606;13.456;2023-03-01T13:37:40;17.40;93.70
11214;DHT22;5664;48.606;13.456;2023-03-01T13:42:48;17.40;93.60
11214;DHT22;5664;48.606;13.456;2023-03-01T13:45:21;17.50;93.70
11214;DHT22;5664;48.606;13.456;2023-03-01T13:47:49;17.40;93.60
11214;DHT22;5664;48.606;13.456;2023-03-01T13:50:16;17.40;93.50
11214;DHT22;5664;48.606;13.456;2023-03-01T13:52:48;17.40;93.50
11214;DHT22;5664;48.606;13.456;2023-03-01T13:57:54;17.40;93.50
11214;DHT22;5664;48.606;13.456;2023-03-01T14:00:31;17.40;93.40
11214;DHT22;5664;48.606;13.456;2023-03-01T14:05:34;17.30;93.30
11214;DHT22;5664;48.606;13.456;2023-03-01T14:08:02;17.40;93.50
11214;DHT22;5664;48.606;13.456;2023-03-01T14:10:31;17.40;93.50
11214;DHT22;5664;48.606;13.456;2023-03-01T14:15:48;17.40;93.40
11214;DHT22;5664;48.606;13.456;2023-03-01T14:18:23;17.50;93.60
11214;DHT22;5664;48.606;13.456;2023-03-01T14:20:50;17.50;93.50
11214;DHT22;5664;48.606;13.456;2023-03-01T14:23:21;17.70;93.60
11214;DHT22;5664;48.606;13.456;2023-03-01T14:25:51;17.60;93.80
11214;DHT22;5664;48.606;13.456;2023-03-01T14:28:18;17.70;93.60
11214;DHT22;5664;48.606;13.456;2023-03-01T14:30:49;17.90;93.70
11214;DHT22;5664;48.606;13.456;2023-03-01T14:35:51;17.90;93.50
11214;DHT22;5664;48.606;13.456;2023-03-01T14:38:20;18.10;93.40
11214;DHT22;5664;48.606;13.456;2023-03-01T14:40:46;18.00;93.20
11214;DHT22;5664;48.606;13.456;2023-03-01T14:43:15;18.10;93.30
11214;DHT22;5664;48.606;13.456;2023-03-01T14:45:46;18.10;93.20
11214;DHT22;5664;48.606;13.456;2023-03-01T14:48:12;18.10;93.20
11214;DHT22;5664;48.606;13.456;2023-03-01T14:50:41;18.20;93.10
11214;DHT22;5664;48.606;13.456;2023-03-01T14:53:07;18.20;93.00
11214;DHT22;5664;48.606;13.456;2023-03-01T14:55:41;18.40;93.00
11214;DHT22;5664;48.606;13.456;2023-03-01T14:58:14;18.50;93.10
11214;DHT22;5664;48.606;13.456;2023-03-01T15:00:40;18.30;92.90
11214;DHT22;5664;48.606;13.456;2023-03-01T15:03:11;18.40;92.80
11214;DHT22;5664;48.606;13.456;2023-03-01T15:05:39;18.50;92.80
11214;DHT22;5664;48.606;13.456;2023-03-01T15:08:04;18.40;92.70
11214;DHT22;5664;48.606;13.456;2023-03-01T15:10:32;18.50;92.80
11214;DHT22;5664;48.606;13.456;2023-03-01T15:13:19;18.50;92.70
11214;DHT22;5664;48.606;13.456;2023-03-01T15:15:46;18.50;92.80
11214;DHT22;5664;48.606;13.456;2023-03-01T15:20:40;18.50;92.70
11214;DHT22;5664;48.606;13.456;2023-03-01T15:23:06;18.70;92.60
11214;DHT22;5664;48.606;13.456;2023-03-01T15:25:43;18.70;92.60
11214;DHT22;5664;48.606;13.456;2023-03-01T15:28:17;18.70;92.60
11214;DHT22;5664;48.606;13.456;2023-03-01T15:30:43;18.60;92.60
11214;DHT22;5664;48.606;13.456;2023-03-01T15:35:53;18.60;92.60
11214;DHT22;5664;48.606;13.456;2023-03-01T15:41:21;18.60;92.40
11214;DHT22;5664;48.606;13.456;2023-03-01T15:43:47;18.80;92.40
11214;DHT22;5664;48.606;13.456;2023-03-01T15:46:18;18.70;92.40
11214;DHT22;5664;48.606;13.456;2023-03-01T15:48:46;18.70;92.20
11214;DHT22;5664;48.606;13.456;2023-03-01T15:51:12;18.80;92.30
11214;DHT22;5664;48.606;13.456;2023-03-01T15:53:38;18.70;92.30
11214;DHT22;5664;48.606;13.456;2023-03-01T15:56:04;18.80;92.30
11214;DHT22;5664;48.606;13.456;2023-03-01T15:58:32;18.70;92.20
11214;DHT22;5664;48.606;13.456;2023-03-01T16:00:58;18.70;92.10
11214;DHT22;5664;48.606;13.456;2023-03-01T16:03:24;18.80;92.10
11214;DHT22;5664;48.606;13.456;2023-03-01T16:05:50;18.80;92.10
11214;DHT22;5664;48.606;13.456;2023-03-01T16:08:16;18.80;92.00
11214;DHT22;5664;48.606;13.456;2023-03-01T16:10:41;18.80;92.10
11214;DHT22;5664;48.606;13.456;2023-03-01T16:13:09;18.80;92.00
11214;DHT22;5664;48.606;13.456;2023-03-01T16:15:35;18.80;91.90
11214;DHT22;5664;48.606;13.456;2023-03-01T16:18:01;18.80;91.90
11214;DHT22;5664;48.606;13.456;2023-03-01T16:20:27;19.00;91.80
11214;DHT22;5664;48.606;13.456;2023-03-01T16:22:53;19.00;91.80
11214;DHT22;5664;48.606;13.456;2023-03-01T16:25:20;19.00;91.80
11214;DHT22;5664;48.606;13.456;2023-03-01T16:27:46;19.00;91.80
11214;DHT22;5664;48.606;13.456;2023-03-01T16:30:12;19.00;91.60
11214;DHT22;5664;48.606;13.456;2023-03-01T16:32:38;18.80;91.60
11214;DHT22;5664;48.606;13.456;2023-03-01T16:35:05;18.80;91.70
11214;DHT22;5664;48.606;13.456;2023-03-01T16:37:32;18.80;91.70
11214;DHT22;5664;48.606;13.456;2023-03-01T16:39:57;19.00;91.70
11214;DHT22;5664;48.606;13.456;2023-03-01T16:42:23;18.90;91.70
11214;DHT22;5664;48.606;13.456;2023-03-01T16:44:48;18.90;91.70
11214;DHT22;5664;48.606;13.456;2023-03-01T16:47:19;18.90;91.80
11214;DHT22;5664;48.606;13.456;2023-03-01T16:49:44;18.90;91.80
11214;DHT22;5664;48.606;13.456;2023-03-01T16:52:10;19.00;91.70
11214;DHT22;5664;48.606;13.456;2023-03-01T16:54:36;18.90;91.60
11214;DHT22;5664;48.606;13.456;2023-03-01T16:57:01;18.90;91.60
11214;DHT22;5664;48.606;13.456;2023-03-01T16:59:27;18.90;91.60
11214;DHT22;5664;48.606;13.456;2023-03-01T17:01:52;19.00;91.50
11214;DHT22;5664;48.606;13.456;2023-03-01T17:04:18;19.00;91.40